Time;durP1;ratioP1;P1;durP2;ratioP2;P2;SDS_P1;SDS_P2;PMS_P1;PMS_P2;Temp;Humidity;BMP_temperature;BMP_pressure;BME280_temperature;BME280_humidity;BME280_pressure;Samples;Min_cycle;Max_cycle;Signal;HPM_P1;HPM_P2
2023/05/21 00:00:10;;;;;;;7.28;3.53;;;14.30;99.90;;;;;;5026366;28;20045;-75
2023/05/21 00:02:37;;;;;;;7.88;3.55;;;14.30;99.90;;;;;;5008232;28;20037;-76
2023/05/21 00:05:04;;;;;;;6.00;3.50;;;14.30;99.90;;;;;;5019539;28;20144;-75
2023/05/21 00:07:33;;;;;;;5.07;3.80;;;14.30;99.90;;;;;;5017285;28;20077;-74
2023/05/21 00:09:59;;;;;;;6.60;3.80;;;14.30;99.90;;;;;;5018897;28;20049;-75
2023/05/21 00:12:24;;;;;;;5.95;3.38;;;14.30;99.90;;;;;;5021360;28;20041;-76
2023/05/21 00:14:50;;;;;;;8.00;3.60;;;14.30;99.90;;;;;;5021222;28;20513;-75
2023/05/21 00:17:22;;;;;;;6.00;3.33;;;14.30;99.90;;;;;;5026698;28;20055;-76
2023/05/21 00:19:49;;;;;;;6.68;3.40;;;14.30;99.90;;;;;;5008834;28;20049;-77
2023/05/21 00:22:15;;;;;;;7.30;3.25;;;14.30;99.90;;;;;;5011520;28;20652;-75
2023/05/21 00:24:41;;;;;;;5.22;3.33;;;14.30;99.90;;;;;;5018702;28;20136;-77
2023/05/21 00:27:10;;;;;;;6.22;4.00;;;14.30;99.90;;;;;;5033362;28;20052;-77
2023/05/21 00:29:36;;;;;;;5.88;3.70;;;14.30;99.90;;;;;;5018891;28;20060;-76
2023/05/21 00:32:02;;;;;;;6.05;3.90;;;14.30;99.90;;;;;;5017823;28;20476;-75
2023/05/21 00:34:28;;;;;;;6.82;3.80;;;14.30;99.90;;;;;;5013953;28;20045;-76
2023/05/21 00:37:01;;;;;;;6.00;3.63;;;14.30;99.90;;;;;;5026394;28;20056;-75
2023/05/21 00:39:27;;;;;;;5.80;3.55;;;14.30;99.90;;;;;;5024420;28;20041;-75
2023/05/21 00:41:55;;;;;;;8.68;3.72;;;14.30;99.90;;;;;;5033954;28;20055;-75
2023/05/21 00:44:22;;;;;;;5.70;3.60;;;14.30;99.90;;;;;;5024013;28;20060;-78
2023/05/21 00:46:52;;;;;;;7.22;3.75;;;14.30;99.90;;;;;;5016390;28;21311;-79
2023/05/21 00:49:21;;;;;;;7.13;4.25;;;14.30;99.90;;;;;;5022944;28;20052;-76
2023/05/21 00:51:50;;;;;;;5.45;3.70;;;14.30;99.90;;;;;;5028340;28;20045;-75
2023/05/21 00:54:16;;;;;;;5.03;3.97;;;14.30;99.90;;;;;;5025030;28;20075;-76
2023/05/21 00:56:46;;;;;;;5.25;3.60;;;14.30;99.90;;;;;;5025922;28;20390;-76
2023/05/21 00:59:12;;;;;;;5.50;3.60;;;14.30;99.90;;;;;;5027063;28;20080;-78
2023/05/21 01:01:38;;;;;;;5.55;3.40;;;14.30;99.90;;;;;;5025203;28;20134;-77
2023/05/21 01:04:04;;;;;;;5.53;3.88;;;14.30;99.90;;;;;;5018848;28;20131;-76
2023/05/21 01:06:33;;;;;;;6.13;3.45;;;14.30;99.90;;;;;;5019334;28;20063;-75
2023/05/21 01:09:01;;;;;;;8.00;3.60;;;14.30;99.90;;;;;;5024610;28;20117;-76
2023/05/21 01:11:48;;;;;;;6.32;3.88;;;14.30;99.90;;;;;;5026244;28;21232;-79
2023/05/21 01:14:15;;;;;;;4.45;3.28;;;14.30;99.90;;;;;;5027749;28;20050;-77
2023/05/21 01:16:48;;;;;;;6.57;3.95;;;14.30;99.90;;;;;;5017353;28;20422;-77
2023/05/21 01:19:21;;;;;;;9.27;3.78;;;14.30;99.90;;;;;;5024583;28;20114;-78
2023/05/21 01:21:55;;;;;;;4.93;3.70;;;14.30;99.90;;;;;;5036779;28;20170;-78
2023/05/21 01:24:21;;;;;;;6.30;4.03;;;14.30;99.90;;;;;;5026914;28;20086;-76
2023/05/21 01:26:47;;;;;;;5.75;3.95;;;14.30;99.90;;;;;;5019909;28;20399;-76
2023/05/21 01:29:13;;;;;;;4.95;3.75;;;14.30;99.90;;;;;;5024081;28;20052;-78
2023/05/21 01:31:51;;;;;;;6.22;4.25;;;14.30;99.90;;;;;;5033181;28;20060;-76
2023/05/21 01:34:20;;;;;;;6.85;4.00;;;13.70;99.90;;;;;;5026984;28;20041;-78
2023/05/21 01:36:53;;;;;;;5.47;3.85;;;14.20;99.90;;;;;;5025131;28;20055;-76
2023/05/21 01:39:28;;;;;;;5.97;4.05;;;14.20;99.90;;;;;;5018305;28;20077;-76
2023/05/21 01:42:07;;;;;;;4.45;3.35;;;14.30;99.90;;;;;;5028835;28;20049;-75
2023/05/21 01:44:34;;;;;;;7.10;3.75;;;14.30;99.90;;;;;;5025780;28;20094;-79
2023/05/21 01:47:02;;;;;;;5.63;3.63;;;14.20;99.90;;;;;;5035952;28;20047;-75
2023/05/21 01:49:29;;;;;;;5.22;3.60;;;14.20;99.90;;;;;;5023442;28;20049;-74
2023/05/21 01:51:55;;;;;;;8.13;3.85;;;14.20;99.90;;;;;;5031572;28;20076;-76
2023/05/21 01:54:22;;;;;;;6.03;3.72;;;14.30;99.90;;;;;;5017879;28;20136;-78
2023/05/21 01:56:49;;;;;;;5.50;3.95;;;14.50;99.90;;;;;;5036181;28;20063;-75
2023/05/21 01:59:16;;;;;;;6.93;4.00;;;14.30;99.90;;;;;;5023467;28;20215;-75
2023/05/21 02:01:42;;;;;;;8.75;3.88;;;14.30;99.90;;;;;;5021418;28;20075;-75
2023/05/21 02:04:08;;;;;;;7.38;3.88;;;14.30;99.90;;;;;;5017222;28;20088;-79
2023/05/21 02:06:34;;;;;;;5.60;4.28;;;14.20;99.90;;;;;;5014494;28;20230;-77
2023/05/21 02:09:01;;;;;;;7.25;3.53;;;14.30;99.90;;;;;;5033227;28;20059;-75
2023/05/21 02:11:27;;;;;;;5.43;3.90;;;14.20;99.90;;;;;;5005239;28;20615;-76
2023/05/21 02:13:53;;;;;;;5.45;3.80;;;14.20;99.90;;;;;;5027353;28;20041;-77
2023/05/21 02:16:21;;;;;;;6.80;3.75;;;14.20;99.90;;;;;;5018572;28;20468;-77
2023/05/21 02:18:55;;;;;;;6.22;4.13;;;14.30;99.90;;;;;;5038348;28;20049;-76
2023/05/21 02:21:21;;;;;;;6.32;3.80;;;14.30;99.90;;;;;;5021390;28;20044;-76
2023/05/21 02:23:47;;;;;;;5.63;3.92;;;14.30;99.90;;;;;;5022179;28;20037;-76
2023/05/21 02:26:13;;;;;;;5.45;3.90;;;14.30;99.90;;;;;;5030537;28;20562;-75
2023/05/21 02:28:40;;;;;;;7.05;4.20;;;14.30;99.90;;;;;;5028785;28;20910;-76
2023/05/21 02:31:06;;;;;;;6.22;4.38;;;14.30;99.90;;;;;;5032685;28;20385;-74
2023/05/21 02:33:31;;;;;;;7.70;3.58;;;14.30;99.90;;;;;;5032093;28;20052;-76
2023/05/21 02:35:57;;;;;;;6.35;4.20;;;14.30;99.90;;;;;;5037902;28;20045;-75
2023/05/21 02:38:24;;;;;;;6.57;3.85;;;14.30;99.90;;;;;;5018744;28;20508;-74
2023/05/21 02:40:50;;;;;;;7.18;3.95;;;14.30;99.90;;;;;;5030366;28;20091;-75
2023/05/21 02:43:16;;;;;;;7.53;4.30;;;14.30;99.90;;;;;;5022832;28;20641;-75
2023/05/21 02:45:42;;;;;;;5.90;4.13;;;14.30;99.90;;;;;;5023370;28;20045;-76
2023/05/21 02:48:08;;;;;;;6.13;4.55;;;14.30;99.90;;;;;;5033702;28;20507;-76
2023/05/21 02:50:34;;;;;;;7.00;4.50;;;14.30;99.90;;;;;;5012696;28;20523;-76
2023/05/21 02:53:00;;;;;;;8.75;3.92;;;14.30;99.90;;;;;;5030177;28;20038;-77
2023/05/21 02:55:26;;;;;;;8.25;4.80;;;13.30;99.90;;;;;;5019628;28;20083;-76
2023/05/21 02:57:51;;;;;;;8.10;3.97;;;14.30;99.90;;;;;;5037640;28;20069;-74
2023/05/21 03:00:17;;;;;;;8.98;4.97;;;14.30;99.90;;;;;;5028651;28;20114;-75
2023/05/21 03:02:43;;;;;;;7.88;4.55;;;14.30;99.90;;;;;;5020411;28;20480;-74
2023/05/21 03:05:09;;;;;;;6.95;4.78;;;14.30;99.90;;;;;;5018071;28;20048;-75
2023/05/21 03:07:35;;;;;;;9.18;4.85;;;14.30;99.90;;;;;;5029567;28;20050;-74
2023/05/21 03:10:02;;;;;;;9.52;5.35;;;14.30;99.90;;;;;;5017353;28;20120;-76
2023/05/21 03:12:27;;;;;;;7.75;4.63;;;14.30;99.90;;;;;;5028729;28;20044;-75
2023/05/21 03:14:55;;;;;;;9.27;4.78;;;14.30;99.90;;;;;;5031598;28;20053;-76
2023/05/21 03:17:21;;;;;;;9.57;4.95;;;14.30;99.90;;;;;;5002420;28;20053;-76
2023/05/21 03:19:47;;;;;;;11.32;4.90;;;14.30;99.90;;;;;;5027666;28;20141;-77
2023/05/21 03:22:13;;;;;;;9.02;4.85;;;14.30;99.90;;;;;;5006982;28;20049;-75
2023/05/21 03:24:40;;;;;;;8.15;4.82;;;14.20;99.90;;;;;;5030509;28;20044;-76
2023/05/21 03:27:06;;;;;;;8.18;4.68;;;14.20;99.90;;;;;;5021466;28;20538;-77
2023/05/21 03:29:33;;;;;;;12.07;4.55;;;14.20;99.90;;;;;;5029316;28;20060;-75
2023/05/21 03:32:00;;;;;;;12.35;4.70;;;14.20;99.90;;;;;;5017951;28;20586;-75
2023/05/21 03:34:33;;;;;;;10.07;4.90;;;14.20;99.90;;;;;;5005347;28;20044;-77
2023/05/21 03:36:59;;;;;;;8.73;4.07;;;14.20;99.90;;;;;;5030976;28;20049;-75
2023/05/21 03:39:26;;;;;;;11.25;4.88;;;14.10;99.90;;;;;;5020082;28;20557;-76
2023/05/21 03:41:57;;;;;;;10.73;4.40;;;14.10;99.90;;;;;;5030845;28;20151;-75
2023/05/21 03:44:23;;;;;;;10.52;4.10;;;14.10;99.90;;;;;;5021136;28;20480;-75
2023/05/21 03:46:52;;;;;;;11.02;4.28;;;14.10;99.90;;;;;;5014734;28;20098;-76
2023/05/21 03:49:18;;;;;;;10.10;4.97;;;14.10;99.90;;;;;;5028783;28;20053;-76
2023/05/21 03:51:44;;;;;;;12.85;4.35;;;14.10;99.90;;;;;;5052647;28;20107;-76
2023/05/21 03:54:10;;;;;;;8.80;3.88;;;14.10;99.90;;;;;;5026810;28;20053;-77
2023/05/21 03:56:36;;;;;;;9.55;4.35;;;14.10;99.90;;;;;;5028216;28;20049;-78
2023/05/21 03:59:01;;;;;;;9.98;4.57;;;14.10;99.90;;;;;;5029159;28;20155;-76
2023/05/21 04:01:27;;;;;;;7.40;4.10;;;14.10;99.90;;;;;;5002560;28;20103;-74
2023/05/21 04:03:53;;;;;;;10.23;4.32;;;14.10;99.90;;;;;;5019809;28;20165;-74
2023/05/21 04:06:18;;;;;;;8.73;3.75;;;14.10;99.90;;;;;;5024778;28;20122;-76
2023/05/21 04:08:44;;;;;;;12.32;4.45;;;14.10;99.90;;;;;;5025993;28;20068;-78
2023/05/21 04:11:10;;;;;;;11.45;4.05;;;14.10;99.90;;;;;;5019720;28;20044;-78
2023/05/21 04:13:40;;;;;;;12.05;4.20;;;14.10;99.90;;;;;;5024537;28;20149;-76
2023/05/21 04:16:08;;;;;;;10.13;4.65;;;14.10;99.90;;;;;;5032804;28;20041;-75
2023/05/21 04:18:34;;;;;;;10.38;4.00;;;14.10;99.90;;;;;;5025031;28;20508;-76
2023/05/21 04:21:01;;;;;;;11.95;4.28;;;14.10;99.90;;;;;;5008448;28;20061;-75
2023/05/21 04:23:27;;;;;;;11.02;4.75;;;14.10;99.90;;;;;;5028629;28;20116;-76
2023/05/21 04:25:52;;;;;;;12.98;4.70;;;14.10;99.90;;;;;;5018617;28;20057;-76
2023/05/21 04:28:19;;;;;;;10.82;4.88;;;14.00;99.90;;;;;;5009041;28;20136;-74
2023/05/21 04:30:46;;;;;;;11.93;4.80;;;14.00;99.90;;;;;;5018726;28;20071;-77
2023/05/21 04:33:16;;;;;;;9.43;4.70;;;14.00;99.90;;;;;;5014247;28;20044;-75
2023/05/21 04:35:43;;;;;;;9.43;4.30;;;13.90;99.90;;;;;;5027844;28;20057;-77
2023/05/21 04:38:09;;;;;;;9.05;4.18;;;13.90;99.90;;;;;;5009663;28;20060;-76
2023/05/21 04:40:35;;;;;;;9.57;4.38;;;13.90;99.90;;;;;;4995252;28;20061;-75
2023/05/21 04:43:01;;;;;;;8.85;4.65;;;13.90;99.90;;;;;;5009387;28;20045;-77
2023/05/21 04:45:28;;;;;;;10.20;4.40;;;13.90;99.90;;;;;;5021912;28;20045;-77
2023/05/21 04:47:53;;;;;;;8.38;4.43;;;13.90;99.90;;;;;;5011908;28;20053;-76
2023/05/21 04:50:19;;;;;;;8.75;4.07;;;13.90;99.90;;;;;;5020333;28;20075;-77
2023/05/21 04:52:45;;;;;;;7.70;4.50;;;13.90;99.90;;;;;;4995225;28;20458;-76
2023/05/21 04:55:11;;;;;;;10.80;4.53;;;14.00;99.90;;;;;;5013750;28;20083;-79
2023/05/21 04:57:37;;;;;;;8.82;4.15;;;14.00;99.90;;;;;;5027653;28;20052;-76
2023/05/21 05:00:05;;;;;;;10.10;4.13;;;13.70;99.90;;;;;;5012013;28;20127;-75
2023/05/21 05:02:30;;;;;;;14.68;4.38;;;14.00;99.90;;;;;;5026636;28;20053;-75
2023/05/21 05:04:58;;;;;;;10.60;4.20;;;14.10;99.90;;;;;;5013696;28;20057;-75
2023/05/21 05:07:31;;;;;;;9.57;3.83;;;14.00;99.90;;;;;;5017912;28;20178;-76
2023/05/21 05:09:56;;;;;;;10.35;3.97;;;14.10;99.90;;;;;;5023615;28;20061;-78
2023/05/21 05:12:22;;;;;;;10.57;4.60;;;14.00;99.90;;;;;;5019079;28;20047;-76
2023/05/21 05:14:48;;;;;;;12.52;4.00;;;14.00;99.90;;;;;;5025465;28;20488;-76
2023/05/21 05:17:13;;;;;;;13.38;4.13;;;14.10;99.90;;;;;;5022951;28;20098;-77
2023/05/21 05:19:52;;;;;;;10.48;4.10;;;14.10;99.90;;;;;;5018698;28;20044;-76
2023/05/21 05:22:18;;;;;;;7.57;3.30;;;14.10;99.90;;;;;;5022733;28;20091;-76
2023/05/21 05:24:43;;;;;;;9.70;3.47;;;14.10;99.90;;;;;;5021129;28;20176;-78
2023/05/21 05:27:09;;;;;;;9.52;3.78;;;14.10;99.90;;;;;;5025405;28;20111;-78
2023/05/21 05:29:35;;;;;;;9.23;3.80;;;14.20;99.90;;;;;;5031998;28;20398;-77
2023/05/21 05:32:01;;;;;;;12.00;4.30;;;14.20;99.90;;;;;;5023891;28;20045;-76
2023/05/21 05:34:27;;;;;;;10.10;3.90;;;14.30;99.90;;;;;;5024306;28;21003;-74
2023/05/21 05:36:52;;;;;;;11.50;3.75;;;14.30;99.90;;;;;;5024037;28;20045;-75
2023/05/21 05:39:21;;;;;;;9.60;3.67;;;14.40;99.90;;;;;;5041117;28;20107;-76
2023/05/21 05:41:48;;;;;;;8.82;3.22;;;14.40;99.90;;;;;;5031299;28;20467;-75
2023/05/21 05:44:15;;;;;;;11.48;4.18;;;14.40;99.90;;;;;;5021839;28;20134;-76
2023/05/21 05:46:41;;;;;;;9.55;3.75;;;14.50;99.90;;;;;;5025976;28;20045;-76
2023/05/21 05:49:08;;;;;;;8.23;3.33;;;14.50;99.90;;;;;;4994337;28;20095;-76
2023/05/21 05:51:33;;;;;;;9.52;3.78;;;14.60;99.90;;;;;;5030509;28;20332;-74
2023/05/21 05:53:59;;;;;;;9.52;3.40;;;14.70;99.90;;;;;;5027735;28;20514;-77
2023/05/21 05:56:25;;;;;;;11.63;3.58;;;14.80;99.90;;;;;;5021377;28;20051;-78
2023/05/21 05:58:51;;;;;;;10.23;3.78;;;14.80;99.90;;;;;;5013254;28;20161;-79
2023/05/21 06:01:23;;;;;;;7.85;3.53;;;14.80;99.90;;;;;;5029670;28;20041;-74
2023/05/21 06:03:49;;;;;;;8.23;3.78;;;14.90;99.90;;;;;;5024315;28;20052;-75
2023/05/21 06:06:15;;;;;;;5.18;3.33;;;15.00;99.90;;;;;;5033508;28;20036;-76
2023/05/21 06:08:42;;;;;;;10.73;4.18;;;15.00;99.90;;;;;;5028868;28;20115;-78
2023/05/21 06:11:10;;;;;;;10.63;3.35;;;15.10;99.90;;;;;;5017150;28;20045;-76
2023/05/21 06:13:38;;;;;;;10.40;3.28;;;15.10;99.90;;;;;;5028975;28;20784;-79
2023/05/21 06:16:05;;;;;;;12.27;3.50;;;15.20;99.90;;;;;;5001049;28;20053;-76
2023/05/21 06:18:31;;;;;;;11.65;3.90;;;15.30;99.90;;;;;;5012383;28;20048;-76
2023/05/21 06:21:02;;;;;;;8.90;3.47;;;15.30;99.90;;;;;;5024819;28;20088;-77
2023/05/21 06:23:30;;;;;;;7.55;3.95;;;15.40;99.90;;;;;;5002539;28;20148;-76
2023/05/21 06:25:56;;;;;;;12.85;3.80;;;15.40;99.90;;;;;;5020097;28;20059;-77
2023/05/21 06:28:22;;;;;;;10.25;3.55;;;15.50;99.90;;;;;;5034300;28;20040;-76
2023/05/21 06:30:49;;;;;;;9.38;3.90;;;15.50;99.90;;;;;;5026609;28;20061;-76
2023/05/21 06:33:15;;;;;;;9.88;3.90;;;15.60;99.90;;;;;;5023059;28;20045;-76
2023/05/21 06:35:41;;;;;;;6.50;3.40;;;15.60;99.90;;;;;;5011251;28;20045;-76
2023/05/21 06:38:08;;;;;;;8.25;3.90;;;15.60;99.90;;;;;;5015455;28;20041;-79
2023/05/21 06:40:34;;;;;;;8.60;3.60;;;15.60;99.90;;;;;;5017058;28;20459;-78
2023/05/21 06:43:00;;;;;;;7.95;3.78;;;15.70;99.90;;;;;;5011154;28;20041;-76
2023/05/21 06:45:25;;;;;;;6.15;3.35;;;15.70;99.90;;;;;;5026150;28;20133;-77
2023/05/21 06:47:57;;;;;;;9.20;3.65;;;15.70;99.90;;;;;;5032730;28;20049;-75
2023/05/21 06:50:23;;;;;;;7.53;3.58;;;15.80;99.90;;;;;;5017878;28;20040;-76
2023/05/21 06:52:48;;;;;;;8.43;3.60;;;15.90;99.90;;;;;;5018701;28;20095;-75
2023/05/21 06:55:17;;;;;;;10.02;3.53;;;15.90;99.90;;;;;;5031850;28;20782;-78
2023/05/21 06:57:43;;;;;;;7.47;3.75;;;15.90;99.90;;;;;;5033615;28;20155;-77
2023/05/21 07:00:10;;;;;;;6.57;3.50;;;16.00;99.90;;;;;;5015334;28;20044;-79
2023/05/21 07:02:35;;;;;;;10.55;3.75;;;16.00;99.90;;;;;;5021170;28;20057;-77
2023/05/21 07:05:02;;;;;;;6.28;3.35;;;16.00;99.90;;;;;;5034599;28;20052;-76
2023/05/21 07:07:27;;;;;;;7.70;3.50;;;16.10;99.90;;;;;;5034780;28;20144;-79
2023/05/21 07:09:53;;;;;;;9.43;2.97;;;16.00;99.90;;;;;;5014356;28;20124;-77
2023/05/21 07:12:19;;;;;;;8.60;3.45;;;16.10;99.90;;;;;;5027843;28;20044;-77
2023/05/21 07:14:46;;;;;;;9.05;4.25;;;16.10;99.90;;;;;;5013125;28;20048;-79
2023/05/21 07:17:12;;;;;;;8.15;3.40;;;16.00;99.90;;;;;;5027081;28;20041;-76
2023/05/21 07:19:39;;;;;;;7.35;3.38;;;17.00;99.90;;;;;;5016120;28;20056;-78
2023/05/21 07:22:05;;;;;;;8.88;3.85;;;16.60;99.90;;;;;;5015972;28;20052;-76
2023/05/21 07:24:33;;;;;;;6.15;3.72;;;16.00;99.90;;;;;;5000755;28;20041;-76
2023/05/21 07:26:59;;;;;;;8.00;3.72;;;16.20;99.90;;;;;;5033168;28;20045;-76
2023/05/21 07:29:25;;;;;;;5.72;3.38;;;16.20;99.90;;;;;;5023689;28;20095;-78
2023/05/21 07:31:51;;;;;;;5.20;3.08;;;16.30;99.90;;;;;;5031751;28;20041;-79
2023/05/21 07:34:18;;;;;;;8.40;3.85;;;16.40;99.90;;;;;;5022696;28;20056;-76
2023/05/21 07:36:43;;;;;;;8.80;3.40;;;16.60;99.90;;;;;;5032007;28;20089;-76
2023/05/21 07:39:13;;;;;;;6.60;3.33;;;16.70;99.90;;;;;;5032145;28;20124;-77
2023/05/21 07:41:43;;;;;;;8.52;3.92;;;16.90;99.90;;;;;;5022983;28;20075;-76
2023/05/21 07:44:09;;;;;;;6.88;3.60;;;17.00;99.90;;;;;;5033661;28;20048;-76
2023/05/21 07:46:37;;;;;;;7.30;3.58;;;17.00;99.90;;;;;;5036037;28;20082;-76
2023/05/21 07:49:02;;;;;;;6.60;3.30;;;17.10;99.90;;;;;;5048450;28;20138;-76
2023/05/21 07:51:31;;;;;;;9.10;3.70;;;17.20;99.90;;;;;;5031151;28;20053;-76
2023/05/21 07:54:00;;;;;;;7.15;3.50;;;17.30;99.90;;;;;;5006466;28;20037;-75
2023/05/21 07:56:27;;;;;;;6.07;3.90;;;17.30;99.90;;;;;;5013196;28;20049;-75
2023/05/21 07:59:00;;;;;;;8.52;3.70;;;17.40;99.90;;;;;;5028256;28;20044;-75
2023/05/21 08:01:29;;;;;;;6.78;3.78;;;17.40;99.90;;;;;;5035539;28;20407;-75
2023/05/21 08:03:55;;;;;;;7.00;3.70;;;17.40;99.90;;;;;;5018227;28;20048;-75
2023/05/21 08:06:23;;;;;;;9.95;3.28;;;17.50;99.90;;;;;;5031451;28;20049;-78
2023/05/21 08:08:49;;;;;;;7.25;3.55;;;17.50;99.90;;;;;;5030280;28;20120;-76
2023/05/21 08:11:22;;;;;;;8.50;3.60;;;17.50;99.90;;;;;;5009357;28;20058;-78
2023/05/21 08:13:49;;;;;;;8.23;3.33;;;17.50;99.90;;;;;;4968703;28;20102;-75
2023/05/21 08:16:15;;;;;;;7.13;3.00;;;17.50;99.90;;;;;;4967385;28;20056;-75
2023/05/21 08:18:41;;;;;;;9.65;3.20;;;17.60;99.90;;;;;;4943671;28;20046;-76
2023/05/21 08:21:07;;;;;;;8.73;3.25;;;17.60;99.90;;;;;;4975763;28;20568;-77
2023/05/21 08:23:33;;;;;;;8.15;2.80;;;17.80;99.90;;;;;;4937105;28;20042;-75
2023/05/21 08:25:59;;;;;;;6.72;2.85;;;17.90;99.90;;;;;;4967431;28;20053;-76
2023/05/21 08:28:26;;;;;;;5.60;3.30;;;18.10;99.90;;;;;;4958459;28;20062;-77
2023/05/21 08:30:53;;;;;;;5.93;3.25;;;18.40;99.90;;;;;;4951361;28;20434;-77
2023/05/21 08:33:19;;;;;;;5.03;3.08;;;18.70;99.90;;;;;;4972798;28;20564;-78
2023/05/21 08:35:45;;;;;;;6.50;3.42;;;19.00;99.90;;;;;;4985609;28;20050;-78
2023/05/21 08:38:15;;;;;;;4.60;2.95;;;19.30;99.90;;;;;;5001773;28;20046;-77
2023/05/21 08:40:42;;;;;;;7.35;2.80;;;19.60;99.90;;;;;;4978093;28;20554;-78
2023/05/21 08:43:19;;;;;;;5.00;2.95;;;19.80;99.90;;;;;;5009137;28;20109;-79
2023/05/21 08:45:54;;;;;;;7.10;3.10;;;20.00;99.90;;;;;;5014650;28;20045;-78
2023/05/21 08:48:23;;;;;;;7.45;3.40;;;20.30;99.90;;;;;;5024270;28;20151;-75
2023/05/21 08:50:54;;;;;;;7.07;3.25;;;20.40;99.90;;;;;;5045783;28;20399;-81
2023/05/21 08:53:22;;;;;;;4.75;2.20;;;20.50;99.90;;;;;;5018010;28;20052;-75
2023/05/21 08:55:51;;;;;;;7.60;3.00;;;20.50;99.90;;;;;;5029901;28;20957;-77
2023/05/21 08:58:21;;;;;;;7.85;2.50;;;20.40;99.90;;;;;;5028153;28;20151;-79
2023/05/21 09:00:48;;;;;;;8.10;2.95;;;20.40;99.90;;;;;;5023630;28;20129;-77
2023/05/21 09:03:15;;;;;;;6.32;2.60;;;20.30;99.90;;;;;;5021889;28;20407;-76
2023/05/21 09:05:42;;;;;;;6.00;2.47;;;20.60;99.90;;;;;;5025685;28;20040;-74
2023/05/21 09:08:23;;;;;;;8.07;2.65;;;20.20;99.90;;;;;;5024078;28;20042;-79
2023/05/21 09:10:50;;;;;;;6.13;2.13;;;20.10;99.90;;;;;;4997966;28;20442;-77
2023/05/21 09:13:18;;;;;;;8.95;2.70;;;20.00;99.90;;;;;;5008440;28;20045;-75
2023/05/21 09:15:45;;;;;;;8.10;2.80;;;20.00;99.90;;;;;;5024349;28;20045;-76
2023/05/21 09:18:12;;;;;;;5.60;2.63;;;20.00;99.90;;;;;;5022178;28;20474;-76
2023/05/21 09:20:39;;;;;;;6.15;2.22;;;20.10;99.90;;;;;;5030125;28;20107;-77
2023/05/21 09:23:15;;;;;;;6.18;2.80;;;20.20;99.90;;;;;;5032177;28;20091;-75
2023/05/21 09:25:46;;;;;;;8.05;3.00;;;20.20;99.90;;;;;;5001535;28;20887;-75
2023/05/21 09:28:13;;;;;;;7.38;2.47;;;20.10;99.90;;;;;;5011089;28;20053;-75
2023/05/21 09:30:52;;;;;;;5.97;2.45;;;20.00;99.90;;;;;;5027825;28;20048;-78
2023/05/21 09:33:26;;;;;;;8.60;3.15;;;20.00;99.90;;;;;;5028164;28;20403;-78
2023/05/21 09:35:52;;;;;;;5.68;2.50;;;20.00;99.90;;;;;;5016658;28;20148;-74
2023/05/21 09:38:22;;;;;;;4.50;2.30;;;19.90;99.90;;;;;;5044594;28;20107;-77
2023/05/21 09:40:57;;;;;;;6.25;2.70;;;19.90;99.90;;;;;;5026726;28;20065;-74
2023/05/21 09:43:24;;;;;;;7.47;2.58;;;19.90;99.90;;;;;;5013423;28;20052;-75
2023/05/21 09:45:55;;;;;;;7.00;2.50;;;19.80;99.90;;;;;;5046987;28;20044;-76
2023/05/21 09:48:50;;;;;;;5.40;2.50;;;19.90;99.90;;;;;;5030843;28;20080;-75
2023/05/21 09:51:17;;;;;;;7.90;2.75;;;19.90;99.90;;;;;;5014921;28;20056;-77
2023/05/21 09:53:54;;;;;;;4.65;2.63;;;19.90;99.90;;;;;;4999435;28;20041;-77
2023/05/21 09:56:25;;;;;;;5.00;2.92;;;19.90;99.90;;;;;;5003729;28;20063;-77
2023/05/21 09:58:56;;;;;;;8.27;2.80;;;19.80;99.90;;;;;;5025710;28;20073;-79
2023/05/21 10:01:27;;;;;;;3.97;2.45;;;19.90;99.90;;;;;;5015896;28;20048;-76
2023/05/21 10:03:58;;;;;;;8.10;3.00;;;20.20;99.90;;;;;;5031686;28;20048;-79
2023/05/21 10:06:28;;;;;;;4.40;2.75;;;20.20;99.90;;;;;;5031559;28;20389;-78
2023/05/21 10:08:56;;;;;;;5.40;3.05;;;20.30;99.90;;;;;;5030431;28;20137;-77
2023/05/21 10:11:25;;;;;;;5.68;2.47;;;20.30;99.90;;;;;;5040855;28;20060;-76
2023/05/21 10:13:59;;;;;;;5.45;3.08;;;20.30;99.90;;;;;;5041553;28;20099;-77
2023/05/21 10:16:27;;;;;;;6.88;2.53;;;20.30;99.90;;;;;;5037502;28;20060;-75
2023/05/21 10:18:54;;;;;;;5.53;2.60;;;20.20;99.90;;;;;;5038681;28;20041;-76
2023/05/21 10:21:21;;;;;;;5.20;2.35;;;20.20;99.90;;;;;;5036012;28;20057;-77
2023/05/21 10:23:48;;;;;;;4.45;2.70;;;20.10;99.90;;;;;;5045880;28;20107;-78
2023/05/21 10:26:15;;;;;;;5.32;2.42;;;19.90;99.90;;;;;;5030247;28;20547;-76
2023/05/21 10:28:42;;;;;;;5.95;2.30;;;19.90;99.90;;;;;;5042001;28;20060;-77
2023/05/21 10:31:14;;;;;;;4.90;2.65;;;20.00;99.90;;;;;;5017982;28;20493;-79
2023/05/21 10:33:43;;;;;;;5.70;2.80;;;20.30;99.90;;;;;;5034297;28;21076;-76
2023/05/21 10:36:09;;;;;;;5.07;2.10;;;20.50;99.90;;;;;;5040133;28;20050;-78
2023/05/21 10:38:37;;;;;;;6.78;2.55;;;20.80;99.90;;;;;;5020582;28;20063;-75
2023/05/21 10:41:14;;;;;;;6.15;2.30;;;21.00;99.90;;;;;;5048818;28;20060;-78
2023/05/21 10:44:30;;;;;;;7.65;2.40;;;21.20;99.90;;;;;;5029402;28;20535;-75
2023/05/21 10:47:02;;;;;;;7.17;2.33;;;21.40;99.90;;;;;;4974676;28;20068;-77
2023/05/21 10:49:44;;;;;;;4.88;2.40;;;21.50;99.90;;;;;;5021182;28;20052;-76
2023/05/21 10:52:47;;;;;;;4.65;2.33;;;21.60;99.90;;;;;;5038515;28;20075;-77
2023/05/21 10:55:41;;;;;;;8.77;2.42;;;21.70;99.90;;;;;;5038176;28;20045;-76
2023/05/21 10:58:34;;;;;;;3.90;1.80;;;21.90;99.90;;;;;;4975319;28;20095;-76
2023/05/21 11:01:02;;;;;;;6.78;2.03;;;22.10;99.90;;;;;;5038616;28;20063;-75
2023/05/21 11:03:29;;;;;;;6.55;2.28;;;22.20;99.90;;;;;;5045332;28;20059;-77
2023/05/21 11:05:56;;;;;;;4.95;1.95;;;22.40;99.90;;;;;;5023669;28;20095;-76
2023/05/21 11:08:24;;;;;;;6.18;2.08;;;22.70;99.90;;;;;;5036037;28;20142;-76
2023/05/21 11:10:54;;;;;;;4.38;1.80;;;23.00;99.90;;;;;;5020945;28;20115;-76
2023/05/21 11:13:20;;;;;;;5.45;2.15;;;23.20;99.90;;;;;;5039143;28;20060;-75
2023/05/21 11:16:06;;;;;;;4.35;1.67;;;23.70;99.90;;;;;;5036739;28;20061;-78
2023/05/21 11:18:38;;;;;;;5.55;2.00;;;23.60;99.90;;;;;;5029151;28;20049;-76
2023/05/21 11:21:15;;;;;;;4.13;2.00;;;23.60;99.90;;;;;;5028938;28;20061;-76
2023/05/21 11:23:49;;;;;;;5.13;1.92;;;23.80;99.90;;;;;;5021370;28;20049;-77
2023/05/21 11:26:15;;;;;;;4.30;1.70;;;24.00;99.90;;;;;;5017352;28;20041;-75
2023/05/21 11:28:41;;;;;;;5.03;1.95;;;23.60;99.90;;;;;;5031931;28;20060;-76
2023/05/21 11:31:28;;;;;;;3.53;1.70;;;24.20;99.70;;;;;;5027291;28;20076;-76
2023/05/21 11:34:28;;;;;;;4.10;1.90;;;24.30;97.40;;;;;;5035035;28;20040;-76
2023/05/21 11:37:22;;;;;;;4.13;2.28;;;24.30;97.40;;;;;;5036729;28;20055;-76
2023/05/21 11:39:49;;;;;;;8.98;2.05;;;24.50;97.10;;;;;;5035025;28;20606;-77
2023/05/21 11:42:42;;;;;;;5.10;2.17;;;24.60;97.80;;;;;;5023865;28;20488;-74
2023/05/21 11:45:09;;;;;;;7.75;2.03;;;24.90;96.80;;;;;;5034743;28;20061;-78
2023/05/21 11:47:34;;;;;;;6.22;2.20;;;25.10;97.10;;;;;;5026285;28;20052;-75
2023/05/21 11:50:03;;;;;;;4.97;2.13;;;25.10;96.40;;;;;;5015875;28;20045;-74
2023/05/21 11:52:30;;;;;;;5.80;2.60;;;25.10;96.10;;;;;;5028406;28;20115;-76
2023/05/21 11:54:58;;;;;;;4.88;2.47;;;24.90;96.00;;;;;;5029538;28;20038;-77
2023/05/21 11:57:30;;;;;;;6.00;2.38;;;24.90;95.90;;;;;;5018342;28;20159;-78
2023/05/21 11:59:57;;;;;;;5.93;2.25;;;24.90;95.70;;;;;;5023443;28;20066;-75
2023/05/21 12:02:26;;;;;;;5.63;2.58;;;25.00;95.60;;;;;;5030117;28;20045;-78
2023/05/21 12:04:52;;;;;;;9.50;2.78;;;25.10;95.20;;;;;;5033271;28;20045;-79
2023/05/21 12:07:18;;;;;;;4.93;2.55;;;25.20;95.00;;;;;;5038499;28;20407;-77
2023/05/21 12:09:49;;;;;;;5.47;2.53;;;25.40;94.80;;;;;;5031466;28;20045;-76
2023/05/21 12:12:24;;;;;;;6.13;2.53;;;25.40;94.10;;;;;;5022156;28;20110;-76
2023/05/21 12:14:53;;;;;;;5.20;2.28;;;25.40;93.90;;;;;;5027336;28;20076;-75
2023/05/21 12:17:22;;;;;;;6.82;2.30;;;25.40;94.10;;;;;;5022235;28;21030;-77
2023/05/21 12:19:52;;;;;;;4.85;2.30;;;25.40;93.90;;;;;;5023639;28;20403;-77
2023/05/21 12:22:18;;;;;;;5.57;2.60;;;25.40;93.80;;;;;;5019041;28;20049;-77
2023/05/21 12:24:52;;;;;;;7.38;2.30;;;25.60;93.60;;;;;;5022363;28;20540;-77
2023/05/21 12:27:45;;;;;;;4.80;2.40;;;25.60;93.00;;;;;;5033936;28;20067;-77
2023/05/21 12:30:11;;;;;;;8.07;2.67;;;25.40;93.50;;;;;;5030977;28;20401;-76
2023/05/21 12:32:42;;;;;;;4.38;2.22;;;25.50;93.70;;;;;;4999801;28;20077;-78
2023/05/21 12:35:19;;;;;;;5.38;2.47;;;25.60;93.40;;;;;;5029838;28;20101;-77
2023/05/21 12:37:45;;;;;;;5.70;2.67;;;25.70;93.30;;;;;;5015984;28;20072;-76
2023/05/21 12:40:13;;;;;;;5.78;2.00;;;25.60;93.00;;;;;;5017181;28;20163;-75
2023/05/21 12:42:44;;;;;;;5.80;2.22;;;25.60;92.90;;;;;;5020226;28;20842;-74
2023/05/21 12:45:10;;;;;;;6.90;2.58;;;25.60;92.60;;;;;;5004876;28;20076;-76
2023/05/21 12:47:37;;;;;;;6.35;2.90;;;25.70;92.90;;;;;;5029768;28;20049;-74
2023/05/21 12:50:12;;;;;;;5.45;2.28;;;25.70;92.50;;;;;;5020680;28;20474;-75
2023/05/21 12:52:39;;;;;;;6.78;2.85;;;25.80;92.50;;;;;;5029717;28;20095;-77